Time;durP1;ratioP1;P1;durP2;ratioP2;P2;SDS_P1;SDS_P2;PMS_P1;PMS_P2;Temp;Humidity;BMP_temperature;BMP_pressure;BME280_temperature;BME280_humidity;BME280_pressure;Samples;Min_cycle;Max_cycle;Signal;HPM_P1;HPM_P2
2022/03/15 00:02:12;;;;;;;;;;;;;;;;;;4969605;28;2050917;-82
2022/03/15 00:04:37;;;;;;;;;;;;;;;;;;5025446;28;19920;-84
2022/03/15 00:07:03;;;;;;;;;;;;;;;;;;5043440;28;19968;-85
2022/03/15 00:09:28;;;;;;;;;;;;;;;;;;5026515;28;20375;-82
2022/03/15 00:11:54;;;;;;;;;;;;;;;;;;5043138;28;20433;-82
2022/03/15 00:14:20;;;;;;;;;;;;;;;;;;5025976;28;19909;-84
2022/03/15 00:16:45;;;;;;;;;;;;;;;;;;5026298;28;19910;-83
2022/03/15 00:19:10;;;;;;;;;;;;;;;;;;5044006;28;19909;-85
2022/03/15 00:21:37;;;;;;;;;;;;;;;;;;5024528;28;19973;-84
2022/03/15 00:24:04;;;;;;;;;;;;;;;;;;5042917;28;19909;-86
2022/03/15 00:26:29;;;;;;;;;;;;;;;;;;5025556;28;20363;-86
2022/03/15 00:28:54;;;;;;;;;;;;;;;;;;5042401;28;20066;-84
2022/03/15 00:31:19;;;;;;;;;;;;;;;;;;5043105;28;19924;-86
2022/03/15 00:33:45;;;;;;;;;;;;;;;;;;5025234;28;19927;-82
2022/03/15 00:36:12;;;;;;;;;;;;;;;;;;5025468;28;19970;-83
2022/03/15 00:38:37;;;;;;;;;;;;;;;;;;5024964;28;19980;-83
2022/03/15 00:41:03;;;;;;;;;;;;;;;;;;5024684;28;19953;-85
2022/03/15 00:43:28;;;;;;;;;;;;;;;;;;5025085;28;19998;-83
2022/03/15 00:45:55;;;;;;;;;;;;;;;;;;5024631;28;19915;-86
2022/03/15 00:48:20;;;;;;;;;;;;;;;;;;5042596;28;19932;-85
2022/03/15 00:50:45;;;;;;;;;;;;;;;;;;5025121;28;20362;-85
2022/03/15 00:53:10;;;;;;;;;;;;;;;;;;5025046;28;19920;-84
2022/03/15 00:55:35;;;;;;;;;;;;;;;;;;5024880;28;19912;-81
2022/03/15 00:58:01;;;;;;;;;;;;;;;;;;5041913;28;19963;-82
2022/03/15 01:00:29;;;;;;;;;;;;;;;;;;5042124;28;19925;-82
2022/03/15 01:02:54;;;;;;;;;;;;;;;;;;5027729;28;19921;-85
2022/03/15 01:05:19;;;;;;;;;;;;;;;;;;5042535;28;20076;-83
2022/03/15 01:07:44;;;;;;;;;;;;;;;;;;5042490;28;19956;-85
2022/03/15 01:10:09;;;;;;;;;;;;;;;;;;5041192;28;20374;-82
2022/03/15 01:12:34;;;;;;;;;;;;;;;;;;5042592;28;19909;-83
2022/03/15 01:14:59;;;;;;;;;;;;;;;;;;5041764;28;19949;-84
2022/03/15 01:17:25;;;;;;;;;;;;;;;;;;5041678;28;19909;-84
2022/03/15 01:19:50;;;;;;;;;;;;;;;;;;5041213;28;20370;-85
2022/03/15 01:22:15;;;;;;;;;;;;;;;;;;5041575;28;20387;-84
2022/03/15 01:24:42;;;;;;;;;;;;;;;;;;5042038;28;19909;-82
2022/03/15 01:27:08;;;;;;;;;;;;;;;;;;5041877;28;19913;-85
2022/03/15 01:29:33;;;;;;;;;;;;;;;;;;5039985;28;19909;-83
2022/03/15 01:31:59;;;;;;;;;;;;;;;;;;5040411;28;20247;-84
2022/03/15 01:34:24;;;;;;;;;;;;;;;;;;5042281;28;19915;-84
2022/03/15 01:36:49;;;;;;;;;;;;;;;;;;5044326;28;19992;-82
2022/03/15 01:39:14;;;;;;;;;;;;;;;;;;5043858;28;19917;-84
2022/03/15 01:41:40;;;;;;;;;;;;;;;;;;5043648;28;19913;-85
2022/03/15 01:44:05;;;;;;;;;;;;;;;;;;5044121;28;19992;-84
2022/03/15 01:46:30;;;;;;;;;;;;;;;;;;5043732;28;20401;-81
2022/03/15 01:48:55;;;;;;;;;;;;;;;;;;5042871;28;20232;-84
2022/03/15 01:51:21;;;;;;;;;;;;;;;;;;5043957;28;20358;-83
2022/03/15 01:53:46;;;;;;;;;;;;;;;;;;5043577;28;19909;-84
2022/03/15 01:56:11;;;;;;;;;;;;;;;;;;5043080;28;19917;-83
2022/03/15 01:58:36;;;;;;;;;;;;;;;;;;5043339;28;19943;-83
2022/03/15 02:01:03;;;;;;;;;;;;;;;;;;5042950;28;19917;-85
2022/03/15 02:03:29;;;;;;;;;;;;;;;;;;5042164;28;19925;-80
2022/03/15 02:05:56;;;;;;;;;;;;;;;;;;5042165;28;19909;-84
2022/03/15 02:08:21;;;;;;;;;;;;;;;;;;5042680;28;19913;-83
2022/03/15 02:10:46;;;;;;;;;;;;;;;;;;5044358;28;19924;-82
2022/03/15 02:13:11;;;;;;;;;;;;;;;;;;5042743;28;19909;-82
2022/03/15 02:15:36;;;;;;;;;;;;;;;;;;5043207;28;19940;-82
2022/03/15 02:18:03;;;;;;;;;;;;;;;;;;5043299;28;19913;-83
2022/03/15 02:20:28;;;;;;;;;;;;;;;;;;5042449;28;19913;-80
2022/03/15 02:22:53;;;;;;;;;;;;;;;;;;5042776;28;20032;-83
2022/03/15 02:25:18;;;;;;;;;;;;;;;;;;5042799;28;19948;-85
2022/03/15 02:27:44;;;;;;;;;;;;;;;;;;5043564;28;19959;-85
2022/03/15 02:30:09;;;;;;;;;;;;;;;;;;5043918;28;20263;-83
2022/03/15 02:32:34;;;;;;;;;;;;;;;;;;5042851;28;19920;-85
2022/03/15 02:34:59;;;;;;;;;;;;;;;;;;5042940;28;19970;-84
2022/03/15 02:37:24;;;;;;;;;;;;;;;;;;5041990;28;19910;-86
2022/03/15 02:39:50;;;;;;;;;;;;;;;;;;5042546;28;19917;-83
2022/03/15 02:42:15;;;;;;;;;;;;;;;;;;5042515;28;20004;-85
2022/03/15 02:44:40;;;;;;;;;;;;;;;;;;5041848;28;20286;-85
2022/03/15 02:47:06;;;;;;;;;;;;;;;;;;5043745;28;19909;-85
2022/03/15 02:49:31;;;;;;;;;;;;;;;;;;5042606;28;19909;-84
2022/03/15 02:51:56;;;;;;;;;;;;;;;;;;5042159;28;19916;-80
2022/03/15 02:54:21;;;;;;;;;;;;;;;;;;5042420;28;19909;-82
2022/03/15 02:56:47;;;;;;;;;;;;;;;;;;5042894;28;19909;-86
2022/03/15 02:59:15;;;;;;;;;;;;;;;;;;5042260;28;19992;-85
2022/03/15 03:01:40;;;;;;;;;;;;;;;;;;5042103;28;19909;-86
2022/03/15 03:04:05;;;;;;;;;;;;;;;;;;5041594;28;19928;-84
2022/03/15 03:06:31;;;;;;;;;;;;;;;;;;5042258;28;19985;-87
2022/03/15 03:08:56;;;;;;;;;;;;;;;;;;5043494;28;19977;-81
2022/03/15 03:11:21;;;;;;;;;;;;;;;;;;5042721;28;19913;-84
2022/03/15 03:13:48;;;;;;;;;;;;;;;;;;5042650;28;19909;-85
2022/03/15 03:16:14;;;;;;;;;;;;;;;;;;5042564;28;19926;-84
2022/03/15 03:18:39;;;;;;;;;;;;;;;;;;5044119;28;19913;-85
2022/03/15 03:21:04;;;;;;;;;;;;;;;;;;5043562;28;19996;-85
2022/03/15 03:23:31;;;;;;;;;;;;;;;;;;5044944;28;19931;-85
2022/03/15 03:25:57;;;;;;;;;;;;;;;;;;5044554;28;19964;-85
2022/03/15 03:28:22;;;;;;;;;;;;;;;;;;5043669;28;19932;-85
2022/03/15 03:30:48;;;;;;;;;;;;;;;;;;5042950;28;19956;-81
2022/03/15 03:33:13;;;;;;;;;;;;;;;;;;5044120;28;19925;-85
2022/03/15 03:35:38;;;;;;;;;;;;;;;;;;5044501;28;19924;-85
2022/03/15 03:38:05;;;;;;;;;;;;;;;;;;5043513;28;19959;-86
2022/03/15 03:40:30;;;;;;;;;;;;;;;;;;5044871;28;20382;-87
2022/03/15 03:42:55;;;;;;;;;;;;;;;;;;5043354;28;19920;-85
2022/03/15 03:45:20;;;;;;;;;;;;;;;;;;5043831;28;19910;-81
2022/03/15 03:47:46;;;;;;;;;;;;;;;;;;5044812;28;19909;-81
2022/03/15 03:50:11;;;;;;;;;;;;;;;;;;5049125;28;19996;-84
2022/03/15 03:52:36;;;;;;;;;;;;;;;;;;5050445;28;19972;-83
2022/03/15 03:55:01;;;;;;;;;;;;;;;;;;5047030;28;19987;-82
2022/03/15 03:57:26;;;;;;;;;;;;;;;;;;5046346;28;20326;-81
2022/03/15 03:59:51;;;;;;;;;;;;;;;;;;5044177;28;19920;-84
2022/03/15 04:02:16;;;;;;;;;;;;;;;;;;5044271;28;19909;-85
2022/03/15 04:04:42;;;;;;;;;;;;;;;;;;5026338;28;19916;-83
2022/03/15 04:07:10;;;;;;;;;;;;;;;;;;5026160;28;19948;-82
2022/03/15 04:09:35;;;;;;;;;;;;;;;;;;5043698;28;19913;-85
2022/03/15 04:12:04;;;;;;;;;;;;;;;;;;5026252;28;20372;-86
2022/03/15 04:14:29;;;;;;;;;;;;;;;;;;5024505;28;19999;-81
2022/03/15 04:16:54;;;;;;;;;;;;;;;;;;5025014;28;20374;-83
2022/03/15 04:19:20;;;;;;;;;;;;;;;;;;5042596;28;19959;-83
2022/03/15 04:21:45;;;;;;;;;;;;;;;;;;5025507;28;19909;-83
2022/03/15 04:24:10;;;;;;;;;;;;;;;;;;5024798;28;19975;-86
2022/03/15 04:26:35;;;;;;;;;;;;;;;;;;5025294;28;19955;-84
2022/03/15 04:29:00;;;;;;;;;;;;;;;;;;5024446;28;20038;-86
2022/03/15 04:31:25;;;;;;;;;;;;;;;;;;5023950;28;19909;-86
2022/03/15 04:33:51;;;;;;;;;;;;;;;;;;5042892;28;20262;-85
2022/03/15 04:36:16;;;;;;;;;;;;;;;;;;5043257;28;19985;-84
2022/03/15 04:38:42;;;;;;;;;;;;;;;;;;5042766;28;20379;-83
2022/03/15 04:41:11;;;;;;;;;;;;;;;;;;5025427;28;19929;-85
2022/03/15 04:43:36;;;;;;;;;;;;;;;;;;5025523;28;19979;-84
2022/03/15 04:46:01;;;;;;;;;;;;;;;;;;5025667;28;19992;-85
2022/03/15 04:48:26;;;;;;;;;;;;;;;;;;5024978;28;19953;-86
2022/03/15 04:50:51;;;;;;;;;;;;;;;;;;5043156;28;19916;-84
2022/03/15 04:53:17;;;;;;;;;;;;;;;;;;5025242;28;19991;-86
2022/03/15 04:55:42;;;;;;;;;;;;;;;;;;5025020;28;19924;-84
2022/03/15 04:58:08;;;;;;;;;;;;;;;;;;5024596;28;19914;-87
2022/03/15 05:00:33;;;;;;;;;;;;;;;;;;5025207;28;19909;-85
2022/03/15 05:02:58;;;;;;;;;;;;;;;;;;5040943;28;19928;-81
2022/03/15 05:05:24;;;;;;;;;;;;;;;;;;5024059;28;20007;-85
2022/03/15 05:07:49;;;;;;;;;;;;;;;;;;5041724;28;19913;-84
2022/03/15 05:13:00;;;;;;;;;;;;;;;;;;5041798;28;20002;-85
2022/03/15 05:15:25;;;;;;;;;;;;;;;;;;5024254;28;19917;-85
2022/03/15 05:17:50;;;;;;;;;;;;;;;;;;5041469;28;19909;-82
2022/03/15 05:20:17;;;;;;;;;;;;;;;;;;5024041;28;19917;-83
2022/03/15 05:22:44;;;;;;;;;;;;;;;;;;5023874;28;19949;-84
2022/03/15 05:25:09;;;;;;;;;;;;;;;;;;5040835;28;19909;-81
2022/03/15 05:27:34;;;;;;;;;;;;;;;;;;5041190;28;19992;-84
2022/03/15 05:30:02;;;;;;;;;;;;;;;;;;5023813;28;19947;-86
2022/03/15 05:32:27;;;;;;;;;;;;;;;;;;5041838;28;19917;-85
2022/03/15 05:34:52;;;;;;;;;;;;;;;;;;5041278;28;19917;-83
2022/03/15 05:37:17;;;;;;;;;;;;;;;;;;5023874;28;19920;-85
2022/03/15 05:39:44;;;;;;;;;;;;;;;;;;5024516;28;19913;-86
2022/03/15 05:42:12;;;;;;;;;;;;;;;;;;5024428;28;19915;-85
2022/03/15 05:44:37;;;;;;;;;;;;;;;;;;5024036;28;19920;-86
2022/03/15 05:47:02;;;;;;;;;;;;;;;;;;5023648;28;19909;-83
2022/03/15 05:49:27;;;;;;;;;;;;;;;;;;5022085;28;19921;-86
2022/03/15 05:51:52;;;;;;;;;;;;;;;;;;5023341;28;19909;-82
2022/03/15 05:54:19;;;;;;;;;;;;;;;;;;5039624;28;19972;-80
2022/03/15 05:56:44;;;;;;;;;;;;;;;;;;5041141;28;19949;-81
2022/03/15 05:59:11;;;;;;;;;;;;;;;;;;5022512;28;19909;-85
2022/03/15 06:01:36;;;;;;;;;;;;;;;;;;5041083;28;19917;-84
2022/03/15 06:04:01;;;;;;;;;;;;;;;;;;5035768;28;19922;-84
2022/03/15 06:06:26;;;;;;;;;;;;;;;;;;5041374;28;19910;-86
2022/03/15 06:08:51;;;;;;;;;;;;;;;;;;5041630;28;19901;-84
2022/03/15 06:11:17;;;;;;;;;;;;;;;;;;5041419;28;19918;-81
2022/03/15 06:13:42;;;;;;;;;;;;;;;;;;5040770;28;20341;-81
2022/03/15 06:16:07;;;;;;;;;;;;;;;;;;5040926;28;19975;-85
2022/03/15 06:18:33;;;;;;;;;;;;;;;;;;5037529;28;19917;-85
2022/03/15 06:20:58;;;;;;;;;;;;;;;;;;5039250;28;19909;-85
2022/03/15 06:23:24;;;;;;;;;;;;;;;;;;5039438;28;19951;-82
2022/03/15 06:25:49;;;;;;;;;;;;;;;;;;5039666;28;19980;-83
2022/03/15 06:28:14;;;;;;;;;;;;;;;;;;5039953;28;19913;-82
2022/03/15 06:30:41;;;;;;;;;;;;;;;;;;5038695;28;19917;-82
2022/03/15 06:33:06;;;;;;;;;;;;;;;;;;5039630;28;20080;-84
2022/03/15 06:35:32;;;;;;;;;;;;;;;;;;5038142;28;20016;-83
2022/03/15 06:38:00;;;;;;;;;;;;;;;;;;5038523;28;20437;-83
2022/03/15 06:40:25;;;;;;;;;;;;;;;;;;5038451;28;19898;-83
2022/03/15 06:42:50;;;;;;;;;;;;;;;;;;5040150;28;19962;-83
2022/03/15 06:45:15;;;;;;;;;;;;;;;;;;5037585;28;19913;-79
2022/03/15 06:47:42;;;;;;;;;;;;;;;;;;5038317;28;19987;-85
2022/03/15 06:50:08;;;;;;;;;;;;;;;;;;5038638;28;20012;-84
2022/03/15 06:52:33;;;;;;;;;;;;;;;;;;5038634;28;19910;-83
2022/03/15 06:54:58;;;;;;;;;;;;;;;;;;5038798;28;19967;-82
2022/03/15 06:57:23;;;;;;;;;;;;;;;;;;5039114;28;19916;-83
2022/03/15 06:59:48;;;;;;;;;;;;;;;;;;5039547;28;19913;-84
2022/03/15 07:02:13;;;;;;;;;;;;;;;;;;5038284;28;19963;-84
2022/03/15 07:04:39;;;;;;;;;;;;;;;;;;5020640;28;19913;-84
2022/03/15 07:07:04;;;;;;;;;;;;;;;;;;5021359;28;19909;-84
2022/03/15 07:09:29;;;;;;;;;;;;;;;;;;5021792;28;20071;-84
2022/03/15 07:11:54;;;;;;;;;;;;;;;;;;5022760;28;20013;-84
2022/03/15 07:14:19;;;;;;;;;;;;;;;;;;5022001;28;19916;-82
2022/03/15 07:16:44;;;;;;;;;;;;;;;;;;5038266;28;19956;-84
2022/03/15 07:19:09;;;;;;;;;;;;;;;;;;5019514;28;19913;-81
2022/03/15 07:21:34;;;;;;;;;;;;;;;;;;5037182;28;19967;-83
2022/03/15 07:23:59;;;;;;;;;;;;;;;;;;5039027;28;19914;-82
2022/03/15 07:26:25;;;;;;;;;;;;;;;;;;5038898;28;20434;-82
2022/03/15 07:28:50;;;;;;;;;;;;;;;;;;5039133;28;19980;-84
2022/03/15 07:31:15;;;;;;;;;;;;;;;;;;5037345;28;19916;-84
2022/03/15 07:33:40;;;;;;;;;;;;;;;;;;5019988;28;19994;-81
2022/03/15 07:36:05;;;;;;;;;;;;;;;;;;5039546;28;20004;-82
2022/03/15 07:38:32;;;;;;;;;;;;;;;;;;5037885;28;20314;-83
2022/03/15 07:41:01;;;;;;;;;;;;;;;;;;5021167;28;19909;-82
2022/03/15 07:43:26;;;;;;;;;;;;;;;;;;5021213;28;19940;-82
2022/03/15 07:45:51;;;;;;;;;;;;;;;;;;5039178;28;19904;-81
2022/03/15 07:48:17;;;;;;;;;;;;;;;;;;5039935;28;19963;-82
2022/03/15 07:50:42;;;;;;;;;;;;;;;;;;5038552;28;20050;-82
2022/03/15 07:53:08;;;;;;;;;;;;;;;;;;5039338;28;20050;-83
2022/03/15 07:55:34;;;;;;;;;;;;;;;;;;5038707;28;19917;-80
2022/03/15 07:57:59;;;;;;;;;;;;;;;;;;5021113;28;20001;-84
2022/03/15 08:00:24;;;;;;;;;;;;;;;;;;5021899;28;20355;-81
2022/03/15 08:02:52;;;;;;;;;;;;;;;;;;5038928;28;20269;-82
2022/03/15 08:05:17;;;;;;;;;;;;;;;;;;5020639;28;19913;-82
2022/03/15 08:07:42;;;;;;;;;;;;;;;;;;5037895;28;19909;-82
2022/03/15 08:10:07;;;;;;;;;;;;;;;;;;5036275;28;19921;-81
2022/03/15 08:12:33;;;;;;;;;;;;;;;;;;5006266;28;19910;-82
2022/03/15 08:14:58;;;;;;;;;;;;;;;;;;5020747;28;19921;-81
2022/03/15 08:17:23;;;;;;;;;;;;;;;;;;5028425;28;19909;-80
2022/03/15 08:19:48;;;;;;;;;;;;;;;;;;4995640;28;19988;-81
2022/03/15 08:22:13;;;;;;;;;;;;;;;;;;5021869;28;20291;-83
2022/03/15 08:24:38;;;;;;;;;;;;;;;;;;5008772;28;19922;-82
2022/03/15 08:27:03;;;;;;;;;;;;;;;;;;4996183;28;19941;-84
2022/03/15 08:29:29;;;;;;;;;;;;;;;;;;4997026;28;19910;-82
2022/03/15 08:31:54;;;;;;;;;;;;;;;;;;4979998;28;20326;-82
2022/03/15 08:34:19;;;;;;;;;;;;;;;;;;4997356;28;19910;-83
2022/03/15 08:36:44;;;;;;;;;;;;;;;;;;4979940;28;20497;-83
2022/03/15 08:39:09;;;;;;;;;;;;;;;;;;4978313;28;19909;-80
2022/03/15 08:41:34;;;;;;;;;;;;;;;;;;4979139;28;19905;-82
2022/03/15 08:43:59;;;;;;;;;;;;;;;;;;4996748;28;19909;-81
2022/03/15 08:46:24;;;;;;;;;;;;;;;;;;4997079;28;20001;-81
2022/03/15 08:48:49;;;;;;;;;;;;;;;;;;4979409;28;19914;-79
2022/03/15 08:51:15;;;;;;;;;;;;;;;;;;4979246;28;20319;-81
2022/03/15 08:53:40;;;;;;;;;;;;;;;;;;4979372;28;19963;-82
2022/03/15 08:56:05;;;;;;;;;;;;;;;;;;4978512;28;19985;-82
2022/03/15 08:58:30;;;;;;;;;;;;;;;;;;4979525;28;19945;-81
2022/03/15 09:00:55;;;;;;;;;;;;;;;;;;4979350;28;19910;-80
2022/03/15 09:03:22;;;;;;;;;;;;;;;;;;4986289;28;19928;-82
2022/03/15 09:05:47;;;;;;;;;;;;;;;;;;4995467;28;19898;-81
2022/03/15 09:08:12;;;;;;;;;;;;;;;;;;4996999;28;20000;-81
2022/03/15 09:10:39;;;;;;;;;;;;;;;;;;4995054;28;19910;-80
2022/03/15 09:13:07;;;;;;;;;;;;;;;;;;4997169;28;19997;-82
2022/03/15 09:15:32;;;;;;;;;;;;;;;;;;4995574;28;19925;-82
2022/03/15 09:17:58;;;;;;;;;;;;;;;;;;4995555;28;19910;-81
2022/03/15 09:20:23;;;;;;;;;;;;;;;;;;4995754;28;20299;-81
2022/03/15 09:22:48;;;;;;;;;;;;;;;;;;4996016;28;19910;-83
2022/03/15 09:25:13;;;;;;;;;;;;;;;;;;4996874;28;19936;-83
2022/03/15 09:27:38;;;;;;;;;;;;;;;;;;4994210;28;19964;-80
2022/03/15 09:30:03;;;;;;;;;;;;;;;;;;4996090;28;19957;-83
2022/03/15 09:32:29;;;;;;;;;;;;;;;;;;4995208;28;19913;-81
2022/03/15 09:34:54;;;;;;;;;;;;;;;;;;4996231;28;19972;-82
2022/03/15 09:37:19;;;;;;;;;;;;;;;;;;4995235;28;19945;-82
2022/03/15 09:39:45;;;;;;;;;;;;;;;;;;4995768;28;19921;-82
2022/03/15 09:42:10;;;;;;;;;;;;;;;;;;4993658;28;19925;-81
2022/03/15 09:44:37;;;;;;;;;;;;;;;;;;5020849;28;20169;-82
2022/03/15 09:47:02;;;;;;;;;;;;;;;;;;5015066;28;20324;-83
2022/03/15 09:49:27;;;;;;;;;;;;;;;;;;5013889;28;19921;-82
2022/03/15 09:51:52;;;;;;;;;;;;;;;;;;5014646;28;19949;-82
2022/03/15 09:54:17;;;;;;;;;;;;;;;;;;5013980;28;20012;-81
2022/03/15 09:56:42;;;;;;;;;;;;;;;;;;5017169;28;20020;-81
2022/03/15 09:59:08;;;;;;;;;;;;;;;;;;5026483;28;19913;-79
2022/03/15 10:01:33;;;;;;;;;;;;;;;;;;5018588;28;19996;-81
2022/03/15 10:03:58;;;;;;;;;;;;;;;;;;5033935;28;20024;-81
2022/03/15 10:06:23;;;;;;;;;;;;;;;;;;5034253;28;19963;-82
2022/03/15 10:08:48;;;;;;;;;;;;;;;;;;5033933;28;19909;-81
2022/03/15 10:11:14;;;;;;;;;;;;;;;;;;5034109;28;19900;-81
2022/03/15 10:13:39;;;;;;;;;;;;;;;;;;5033731;28;20374;-80
2022/03/15 10:16:04;;;;;;;;;;;;;;;;;;5018013;28;19917;-80
2022/03/15 10:18:29;;;;;;;;;;;;;;;;;;5035329;28;19937;-83
2022/03/15 10:20:55;;;;;;;;;;;;;;;;;;5035706;28;20374;-85
2022/03/15 10:23:24;;;;;;;;;;;;;;;;;;5034851;28;19909;-84
2022/03/15 10:25:49;;;;;;;;;;;;;;;;;;5036081;28;19913;-84
2022/03/15 10:28:14;;;;;;;;;;;;;;;;;;5035750;28;19965;-85
2022/03/15 10:30:39;;;;;;;;;;;;;;;;;;5035784;28;19909;-81
2022/03/15 10:33:05;;;;;;;;;;;;;;;;;;5034614;28;19910;-83
2022/03/15 10:35:31;;;;;;;;;;;;;;;;;;5018813;28;19917;-83
2022/03/15 10:37:56;;;;;;;;;;;;;;;;;;5018800;28;19917;-82
2022/03/15 10:40:21;;;;;;;;;;;;;;;;;;5019546;28;19917;-83
2022/03/15 10:42:47;;;;;;;;;;;;;;;;;;5035302;28;19910;-80
2022/03/15 10:45:12;;;;;;;;;;;;;;;;;;5019580;28;19909;-81
2022/03/15 10:47:38;;;;;;;;;;;;;;;;;;5033993;28;20375;-80
2022/03/15 10:50:04;;;;;;;;;;;;;;;;;;5033298;28;20318;-81
2022/03/15 10:52:30;;;;;;;;;;;;;;;;;;5034612;28;19981;-82
2022/03/15 10:54:55;;;;;;;;;;;;;;;;;;5033627;28;20279;-83
2022/03/15 10:57:20;;;;;;;;;;;;;;;;;;5019163;28;19910;-82
2022/03/15 10:59:45;;;;;;;;;;;;;;;;;;5019202;28;19904;-82
2022/03/15 11:02:13;;;;;;;;;;;;;;;;;;5033915;28;19910;-81
2022/03/15 11:04:38;;;;;;;;;;;;;;;;;;5017285;28;19917;-82
2022/03/15 11:07:03;;;;;;;;;;;;;;;;;;5016165;28;19956;-81
2022/03/15 11:09:29;;;;;;;;;;;;;;;;;;5019023;28;19909;-81
2022/03/15 11:11:54;;;;;;;;;;;;;;;;;;5017465;28;19992;-82
2022/03/15 11:14:19;;;;;;;;;;;;;;;;;;5017959;28;19964;-81
2022/03/15 11:16:45;;;;;;;;;;;;;;;;;;5018394;28;19913;-82
2022/03/15 11:19:11;;;;;;;;;;;;;;;;;;5018172;28;19920;-80
2022/03/15 11:21:36;;;;;;;;;;;;;;;;;;5017199;28;19925;-79
2022/03/15 11:24:01;;;;;;;;;;;;;;;;;;5016601;28;19909;-80
2022/03/15 11:26:26;;;;;;;;;;;;;;;;;;5018023;28;19909;-81
2022/03/15 11:28:51;;;;;;;;;;;;;;;;;;5018068;28;19909;-81
2022/03/15 11:31:16;;;;;;;;;;;;;;;;;;5018492;28;19913;-84
2022/03/15 11:33:42;;;;;;;;;;;;;;;;;;5018291;28;19918;-84
2022/03/15 11:36:07;;;;;;;;;;;;;;;;;;5019417;28;19918;-85
2022/03/15 11:38:33;;;;;;;;;;;;;;;;;;5018037;28;19944;-84
2022/03/15 11:40:58;;;;;;;;;;;;;;;;;;5018371;28;19984;-80
2022/03/15 11:43:23;;;;;;;;;;;;;;;;;;5019955;28;19910;-83
2022/03/15 11:45:48;;;;;;;;;;;;;;;;;;5018831;28;20297;-83
2022/03/15 11:48:13;;;;;;;;;;;;;;;;;;5019398;28;19916;-84
2022/03/15 11:50:38;;;;;;;;;;;;;;;;;;5018191;28;20008;-82
2022/03/15 11:53:06;;;;;;;;;;;;;;;;;;5018520;28;19916;-81
2022/03/15 11:55:31;;;;;;;;;;;;;;;;;;5018053;28;19924;-81
2022/03/15 11:57:59;;;;;;;;;;;;;;;;;;5018773;28;19910;-81
2022/03/15 12:00:24;;;;;;;;;;;;;;;;;;5017731;28;19910;-81
2022/03/15 12:02:49;;;;;;;;;;;;;;;;;;5018951;28;19933;-82
2022/03/15 12:05:17;;;;;;;;;;;;;;;;;;5018789;28;19913;-82
2022/03/15 12:07:45;;;;;;;;;;;;;;;;;;5017941;28;19910;-81
2022/03/15 12:10:10;;;;;;;;;;;;;;;;;;5018869;28;20326;-81
2022/03/15 12:12:35;;;;;;;;;;;;;;;;;;5016586;28;19924;-82
2022/03/15 12:15:00;;;;;;;;;;;;;;;;;;5018582;28;19918;-82
2022/03/15 12:17:25;;;;;;;;;;;;;;;;;;5016094;28;19909;-82
2022/03/15 12:19:55;;;;;;;;;;;;;;;;;;5017866;28;19909;-83
2022/03/15 12:22:20;;;;;;;;;;;;;;;;;;5017391;28;19910;-84
2022/03/15 12:24:46;;;;;;;;;;;;;;;;;;5016886;28;19920;-82
2022/03/15 12:27:11;;;;;;;;;;;;;;;;;;5018506;28;19910;-84
2022/03/15 12:29:36;;;;;;;;;;;;;;;;;;5016365;28;19910;-85
2022/03/15 12:32:01;;;;;;;;;;;;;;;;;;5019291;28;19920;-84
2022/03/15 12:34:27;;;;;;;;;;;;;;;;;;5005806;28;19909;-83
2022/03/15 12:36:52;;;;;;;;;;;;;;;;;;5000279;28;19918;-83
2022/03/15 12:39:18;;;;;;;;;;;;;;;;;;4999972;28;19941;-87
2022/03/15 12:41:43;;;;;;;;;;;;;;;;;;4982555;28;20363;-83
2022/03/15 12:44:08;;;;;;;;;;;;;;;;;;4980490;28;19914;-81
2022/03/15 12:46:33;;;;;;;;;;;;;;;;;;4981034;28;19948;-86
2022/03/15 12:48:58;;;;;;;;;;;;;;;;;;4981681;28;19914;-84
2022/03/15 12:51:24;;;;;;;;;;;;;;;;;;4998936;28;19981;-81
2022/03/15 12:53:49;;;;;;;;;;;;;;;;;;4982501;28;19956;-85
2022/03/15 12:56:14;;;;;;;;;;;;;;;;;;4999219;28;19918;-87
2022/03/15 12:58:39;;;;;;;;;;;;;;;;;;4979382;28;19910;-84
2022/03/15 13:01:05;;;;;;;;;;;;;;;;;;4980978;28;19946;-84
2022/03/15 13:03:31;;;;;;;;;;;;;;;;;;4988387;28;19933;-85
2022/03/15 13:05:57;;;;;;;;;;;;;;;;;;5000665;28;19933;-84
2022/03/15 13:08:23;;;;;;;;;;;;;;;;;;4999047;28;19910;-83
2022/03/15 13:10:50;;;;;;;;;;;;;;;;;;4999899;28;19921;-83
2022/03/15 13:13:18;;;;;;;;;;;;;;;;;;4997583;28;19914;-86
2022/03/15 13:15:43;;;;;;;;;;;;;;;;;;4995686;28;19972;-84
2022/03/15 13:18:08;;;;;;;;;;;;;;;;;;4994786;28;19918;-85
2022/03/15 13:20:38;;;;;;;;;;;;;;;;;;4997111;28;19921;-86
2022/03/15 13:23:03;;;;;;;;;;;;;;;;;;4997467;28;19910;-85
2022/03/15 13:25:28;;;;;;;;;;;;;;;;;;4996235;28;20322;-84
2022/03/15 13:27:55;;;;;;;;;;;;;;;;;;4997013;28;19910;-86
2022/03/15 13:30:20;;;;;;;;;;;;;;;;;;5001751;28;19937;-86
2022/03/15 13:32:46;;;;;;;;;;;;;;;;;;5000149;28;20375;-85
2022/03/15 13:35:11;;;;;;;;;;;;;;;;;;4997724;28;19918;-86
2022/03/15 13:37:37;;;;;;;;;;;;;;;;;;5000169;28;19909;-84
2022/03/15 13:40:02;;;;;;;;;;;;;;;;;;5000201;28;19910;-86
2022/03/15 13:42:27;;;;;;;;;;;;;;;;;;5002799;28;19910;-83
2022/03/15 13:44:58;;;;;;;;;;;;;;;;;;5004109;28;20038;-84
2022/03/15 13:47:25;;;;;;;;;;;;;;;;;;5004085;28;19894;-87
2022/03/15 13:49:52;;;;;;;;;;;;;;;;;;5015132;28;19909;-84
2022/03/15 13:52:23;;;;;;;;;;;;;;;;;;5028105;28;19976;-82
2022/03/15 13:54:50;;;;;;;;;;;;;;;;;;5037403;28;19909;-82
2022/03/15 13:57:15;;;;;;;;;;;;;;;;;;5031733;28;20602;-84
2022/03/15 13:59:40;;;;;;;;;;;;;;;;;;5033224;28;19922;-80
2022/03/15 14:02:07;;;;;;;;;;;;;;;;;;5034691;28;19909;-81
2022/03/15 14:04:32;;;;;;;;;;;;;;;;;;5027945;28;19990;-83
2022/03/15 14:06:57;;;;;;;;;;;;;;;;;;5037074;28;19909;-84
2022/03/15 14:09:22;;;;;;;;;;;;;;;;;;5038388;28;19917;-85
2022/03/15 14:11:49;;;;;;;;;;;;;;;;;;5041353;28;20306;-87
2022/03/15 14:14:15;;;;;;;;;;;;;;;;;;5034610;28;19921;-85
2022/03/15 14:16:41;;;;;;;;;;;;;;;;;;5035436;28;19963;-85
2022/03/15 14:19:07;;;;;;;;;;;;;;;;;;5038815;28;19914;-84
2022/03/15 14:21:33;;;;;;;;;;;;;;;;;;5035400;28;20303;-84
2022/03/15 14:23:58;;;;;;;;;;;;;;;;;;5030548;28;19936;-84
2022/03/15 14:26:27;;;;;;;;;;;;;;;;;;5038080;28;19921;-82
2022/03/15 14:28:53;;;;;;;;;;;;;;;;;;5031007;28;20333;-80
2022/03/15 14:31:18;;;;;;;;;;;;;;;;;;5039102;28;20008;-83
2022/03/15 14:33:45;;;;;;;;;;;;;;;;;;5038578;28;19909;-85
2022/03/15 14:36:10;;;;;;;;;;;;;;;;;;5031539;28;19928;-84
2022/03/15 14:38:36;;;;;;;;;;;;;;;;;;5038045;28;19913;-82
2022/03/15 14:41:01;;;;;;;;;;;;;;;;;;5023971;28;19941;-85
2022/03/15 14:43:30;;;;;;;;;;;;;;;;;;5026171;28;19932;-84
2022/03/15 14:45:55;;;;;;;;;;;;;;;;;;5035837;28;20443;-82
2022/03/15 14:48:20;;;;;;;;;;;;;;;;;;5024528;28;19952;-83
2022/03/15 14:50:45;;;;;;;;;;;;;;;;;;5016918;28;19910;-84
2022/03/15 14:53:10;;;;;;;;;;;;;;;;;;5016305;28;19960;-85
2022/03/15 14:55:36;;;;;;;;;;;;;;;;;;5017463;28;19997;-87
2022/03/15 14:58:01;;;;;;;;;;;;;;;;;;5026336;28;20014;-86
2022/03/15 15:00:27;;;;;;;;;;;;;;;;;;5020135;28;19917;-82
2022/03/15 15:02:52;;;;;;;;;;;;;;;;;;5020901;28;19922;-83
2022/03/15 15:05:17;;;;;;;;;;;;;;;;;;5005996;28;19952;-84
2022/03/15 15:07:43;;;;;;;;;;;;;;;;;;5008815;28;20272;-85
2022/03/15 15:10:09;;;;;;;;;;;;;;;;;;5008855;28;19920;-81
2022/03/15 15:12:34;;;;;;;;;;;;;;;;;;5006652;28;19960;-85
2022/03/15 15:15:02;;;;;;;;;;;;;;;;;;5023103;28;20387;-87
2022/03/15 15:17:29;;;;;;;;;;;;;;;;;;5005800;28;20282;-83
2022/03/15 15:19:54;;;;;;;;;;;;;;;;;;5021567;28;19909;-84
2022/03/15 15:22:22;;;;;;;;;;;;;;;;;;5006336;28;19932;-84
2022/03/15 15:24:47;;;;;;;;;;;;;;;;;;5021250;28;20318;-85
2022/03/15 15:27:13;;;;;;;;;;;;;;;;;;5005029;28;19909;-85
2022/03/15 15:29:43;;;;;;;;;;;;;;;;;;5022949;28;19990;-86
2022/03/15 15:32:08;;;;;;;;;;;;;;;;;;5005261;28;19914;-83
2022/03/15 15:34:33;;;;;;;;;;;;;;;;;;5021986;28;19991;-78
2022/03/15 15:36:58;;;;;;;;;;;;;;;;;;5004969;28;19910;-84
2022/03/15 15:39:26;;;;;;;;;;;;;;;;;;5005179;28;19916;-82
2022/03/15 15:41:51;;;;;;;;;;;;;;;;;;5022209;28;20339;-84
2022/03/15 15:44:16;;;;;;;;;;;;;;;;;;5002730;28;19914;-81
2022/03/15 15:46:44;;;;;;;;;;;;;;;;;;5002521;28;19901;-82
2022/03/15 15:49:12;;;;;;;;;;;;;;;;;;5003897;28;19917;-83
2022/03/15 15:51:39;;;;;;;;;;;;;;;;;;5019421;28;19916;-80
2022/03/15 15:54:05;;;;;;;;;;;;;;;;;;5006139;28;19932;-84
2022/03/15 15:56:48;;;;;;;;;;;;;;;;;;5027431;28;20387;-81
2022/03/15 15:59:13;;;;;;;;;;;;;;;;;;5009288;28;19929;-79
2022/03/15 16:01:40;;;;;;;;;;;;;;;;;;5024635;23;19925;-79
2022/03/15 16:06:36;;;;;;;;;;;;;;;;;;5050255;23;19925;-81
2022/03/15 16:09:02;;;;;;;;;;;;;;;;;;5032261;23;19957;-78
2022/03/15 16:11:34;;;;;;;;;;;;;;;;;;5028617;28;19952;-78
2022/03/15 16:14:02;;;;;;;;;;;;;;;;;;5120912;23;19932;-79
2022/03/15 16:16:28;;;;;;;;;;;;;;;;;;5017282;23;19898;-81
2022/03/15 16:18:53;;;;;;;;;;;;;;;;;;5025742;28;19967;-88
2022/03/15 16:21:21;;;;;;;;;;;;;;;;;;5004628;28;19916;-84
2022/03/15 16:23:46;;;;;;;;;;;;;;;;;;5006453;28;19910;-81
2022/03/15 16:26:11;;;;;;;;;;;;;;;;;;5010988;28;19918;-79
2022/03/15 16:28:36;;;;;;;;;;;;;;;;;;5027689;28;19972;-79
2022/03/15 16:31:01;;;;;;;;;;;;;;;;;;5008081;28;20175;-86
2022/03/15 16:33:26;;;;;;;;;;;;;;;;;;5019702;28;19909;-80
2022/03/15 16:35:51;;;;;;;;;;;;;;;;;;5000771;28;19909;-81
2022/03/15 16:38:16;;;;;;;;;;;;;;;;;;5001852;28;19917;-84
2022/03/15 16:40:42;;;;;;;;;;;;;;;;;;5002194;28;19909;-86